Time;durP1;ratioP1;P1;durP2;ratioP2;P2;SDS_P1;SDS_P2;PMS_P1;PMS_P2;Temp;Humidity;BMP_temperature;BMP_pressure;BME280_temperature;BME280_humidity;BME280_pressure;Samples;Min_cycle;Max_cycle;Signal;HPM_P1;HPM_P2
2022/07/26 00:00:50;;;;;;;4.43;2.10;;;;;;;;;;5097356;27;20245;-67
2022/07/26 00:03:17;;;;;;;4.15;1.65;;;;;;;;;;5105169;27;20300;-66
2022/07/26 00:05:45;;;;;;;2.80;2.20;;;;;;;;;;5091695;28;20207;-67
2022/07/26 00:08:12;;;;;;;3.58;1.98;;;;;;;;;;5091858;27;20223;-66
2022/07/26 00:10:44;;;;;;;5.53;2.08;;;;;;;;;;5094729;28;20352;-66
2022/07/26 00:13:12;;;;;;;8.25;2.35;;;;;;;;;;5084416;28;20197;-66
2022/07/26 00:15:39;;;;;;;4.45;1.85;;;;;;;;;;5089628;27;20225;-66
2022/07/26 00:18:06;;;;;;;3.28;1.90;;;;;;;;;;5083239;28;20224;-67
2022/07/26 00:20:38;;;;;;;3.42;2.25;;;;;;;;;;5082888;28;20204;-67
2022/07/26 00:23:07;;;;;;;2.90;1.98;;;;;;;;;;5085246;27;20577;-66
2022/07/26 00:25:34;;;;;;;4.03;2.22;;;;;;;;;;5083464;28;20574;-67
2022/07/26 00:28:02;;;;;;;2.72;2.08;;;;;;;;;;5088119;27;20228;-67
2022/07/26 00:30:29;;;;;;;2.60;2.10;;;;;;;;;;5090661;27;20211;-67
2022/07/26 00:32:56;;;;;;;5.18;3.30;;;;;;;;;;5085618;27;20208;-66
2022/07/26 00:35:24;;;;;;;6.32;4.80;;;;;;;;;;5091249;27;20200;-66
2022/07/26 00:37:52;;;;;;;7.05;4.05;;;;;;;;;;5093542;27;20224;-67
2022/07/26 00:40:19;;;;;;;5.65;3.75;;;;;;;;;;5112058;27;20217;-66
2022/07/26 00:42:47;;;;;;;8.25;4.63;;;;;;;;;;5094700;28;20253;-66
2022/07/26 00:45:15;;;;;;;12.98;7.82;;;;;;;;;;5092487;28;20215;-66
2022/07/26 00:47:43;;;;;;;6.30;3.75;;;;;;;;;;5093777;27;20798;-66
2022/07/26 00:50:12;;;;;;;3.80;2.42;;;;;;;;;;5111014;27;20219;-66
2022/07/26 00:52:41;;;;;;;4.85;2.80;;;;;;;;;;5101777;27;20659;-67
2022/07/26 00:55:08;;;;;;;2.63;1.92;;;;;;;;;;5087531;28;20254;-67
2022/07/26 00:57:36;;;;;;;5.57;2.17;;;;;;;;;;5087895;27;20466;-66
2022/07/26 01:00:05;;;;;;;4.65;2.13;;;;;;;;;;5082752;28;20208;-67
2022/07/26 01:02:32;;;;;;;4.78;2.90;;;;;;;;;;5083073;28;20200;-66
2022/07/26 01:05:00;;;;;;;6.00;2.42;;;;;;;;;;5084127;27;20208;-66
2022/07/26 01:07:28;;;;;;;4.40;1.80;;;;;;;;;;5094872;27;21232;-66
2022/07/26 01:09:56;;;;;;;2.00;1.80;;;;;;;;;;5100251;27;20296;-66
2022/07/26 01:12:24;;;;;;;3.13;1.70;;;;;;;;;;5087235;27;20216;-67
2022/07/26 01:14:51;;;;;;;7.05;2.83;;;;;;;;;;5105614;27;20234;-67
2022/07/26 01:17:18;;;;;;;4.95;1.98;;;;;;;;;;5088209;27;20228;-67
2022/07/26 01:19:46;;;;;;;3.13;1.63;;;;;;;;;;5096866;28;20208;-67
2022/07/26 01:22:13;;;;;;;2.13;1.85;;;;;;;;;;5084572;27;20223;-67
2022/07/26 01:24:41;;;;;;;4.30;2.00;;;;;;;;;;5087578;28;20216;-66
2022/07/26 01:27:08;;;;;;;3.33;1.70;;;;;;;;;;5081256;28;20308;-66
2022/07/26 01:29:36;;;;;;;3.75;1.60;;;;;;;;;;5090474;27;20227;-66
2022/07/26 01:32:04;;;;;;;3.22;1.73;;;;;;;;;;5104834;27;20749;-66
2022/07/26 01:34:32;;;;;;;2.08;1.50;;;;;;;;;;5080412;28;20219;-66
2022/07/26 01:36:59;;;;;;;3.50;1.75;;;;;;;;;;5105698;27;20272;-66
2022/07/26 01:39:27;;;;;;;3.53;1.67;;;;;;;;;;5084796;28;20578;-66
2022/07/26 01:41:55;;;;;;;3.00;1.52;;;;;;;;;;5095666;27;20199;-67
2022/07/26 01:44:23;;;;;;;2.28;1.70;;;;;;;;;;5082678;27;20200;-66
2022/07/26 01:46:50;;;;;;;3.13;1.48;;;;;;;;;;5084201;28;20270;-66
2022/07/26 01:49:18;;;;;;;3.22;1.58;;;;;;;;;;5088021;28;20655;-66
2022/07/26 01:51:45;;;;;;;3.08;2.05;;;;;;;;;;5085472;27;20303;-66
2022/07/26 01:54:13;;;;;;;2.92;1.70;;;;;;;;;;5082292;28;20195;-67
2022/07/26 01:56:42;;;;;;;3.58;1.52;;;;;;;;;;5105857;27;20296;-67
2022/07/26 01:59:09;;;;;;;3.25;1.75;;;;;;;;;;5083847;27;20208;-67
2022/07/26 02:01:36;;;;;;;4.13;2.33;;;;;;;;;;5080295;28;20212;-67
2022/07/26 02:04:57;;;;;;;8.38;5.10;;;;;;;;;;5087849;28;20702;-66
2022/07/26 02:06:56;;;;;;;3.38;2.28;;;;;;;;;;5108744;27;20282;-68
2022/07/26 02:09:24;;;;;;;2.03;1.83;;;;;;;;;;5089559;27;20227;-68
2022/07/26 02:11:55;;;;;;;3.97;2.53;;;;;;;;;;5080509;28;20207;-68
2022/07/26 02:14:23;;;;;;;3.45;1.80;;;;;;;;;;5085756;28;20197;-65
2022/07/26 02:16:58;;;;;;;2.47;1.75;;;;;;;;;;5082405;28;20697;-67
2022/07/26 02:19:27;;;;;;;3.78;1.92;;;;;;;;;;5085065;28;20228;-66
2022/07/26 02:21:55;;;;;;;4.72;1.73;;;;;;;;;;5101151;27;20219;-68
2022/07/26 02:24:22;;;;;;;3.63;1.70;;;;;;;;;;5106888;28;20211;-68
2022/07/26 02:26:50;;;;;;;1.75;1.65;;;;;;;;;;5096407;28;20220;-67
2022/07/26 02:29:17;;;;;;;3.53;1.80;;;;;;;;;;5089953;28;20240;-66
2022/07/26 02:31:45;;;;;;;3.95;2.20;;;;;;;;;;5091902;27;20953;-67
2022/07/26 02:34:15;;;;;;;3.85;2.08;;;;;;;;;;5083608;28;20663;-67
2022/07/26 02:36:42;;;;;;;2.45;1.70;;;;;;;;;;5085641;28;20228;-67
2022/07/26 02:39:10;;;;;;;2.65;1.83;;;;;;;;;;5085290;27;20212;-66
2022/07/26 02:41:38;;;;;;;2.90;1.75;;;;;;;;;;5084688;28;20722;-67
2022/07/26 02:44:06;;;;;;;1.90;1.70;;;;;;;;;;5080436;28;20741;-67
2022/07/26 02:46:34;;;;;;;2.42;1.55;;;;;;;;;;5088449;27;20709;-67
2022/07/26 02:49:01;;;;;;;3.65;1.90;;;;;;;;;;5091072;28;20235;-67
2022/07/26 02:51:29;;;;;;;1.70;1.60;;;;;;;;;;5090304;27;20210;-67
2022/07/26 02:53:56;;;;;;;4.03;1.73;;;;;;;;;;5083210;28;20202;-66
2022/07/26 02:56:24;;;;;;;2.83;1.42;;;;;;;;;;5087491;28;20227;-67
2022/07/26 02:58:51;;;;;;;1.80;1.58;;;;;;;;;;5079267;28;20261;-67
2022/07/26 03:01:19;;;;;;;3.20;1.40;;;;;;;;;;5083734;27;20200;-66
2022/07/26 03:03:47;;;;;;;3.05;1.70;;;;;;;;;;5102256;27;20204;-67
2022/07/26 03:06:24;;;;;;;1.40;1.30;;;;;;;;;;5087284;28;20228;-66
2022/07/26 03:08:52;;;;;;;2.65;1.70;;;;;;;;;;5080614;28;20215;-66
2022/07/26 03:11:20;;;;;;;1.63;1.50;;;;;;;;;;5075950;27;20826;-67
2022/07/26 03:13:47;;;;;;;1.70;1.60;;;;;;;;;;5078932;27;20199;-66
2022/07/26 03:16:14;;;;;;;2.20;2.05;;;;;;;;;;5085540;28;20272;-67
2022/07/26 03:18:49;;;;;;;4.63;1.80;;;;;;;;;;5086314;27;20257;-65
2022/07/26 03:21:16;;;;;;;1.58;1.40;;;;;;;;;;5084952;28;20205;-67
2022/07/26 03:23:43;;;;;;;3.67;1.50;;;;;;;;;;5084620;28;20774;-66
2022/07/26 03:26:11;;;;;;;3.03;1.60;;;;;;;;;;5084004;28;20209;-66
2022/07/26 03:28:41;;;;;;;5.60;1.50;;;;;;;;;;5078197;28;20225;-66
2022/07/26 03:31:08;;;;;;;4.30;1.48;;;;;;;;;;5076427;28;20678;-66
2022/07/26 03:33:36;;;;;;;1.70;1.58;;;;;;;;;;5093657;28;20702;-67
2022/07/26 03:36:03;;;;;;;1.45;1.35;;;;;;;;;;5086365;28;20203;-67
2022/07/26 03:38:37;;;;;;;1.77;1.67;;;;;;;;;;5080995;28;20208;-66
2022/07/26 03:41:05;;;;;;;2.30;1.40;;;;;;;;;;5079154;28;20300;-65
2022/07/26 03:43:33;;;;;;;1.63;1.33;;;;;;;;;;5084458;28;20273;-67
2022/07/26 03:46:02;;;;;;;2.10;1.80;;;;;;;;;;5082072;28;20273;-65
2022/07/26 03:48:30;;;;;;;2.20;1.42;;;;;;;;;;5084608;28;20238;-66
2022/07/26 03:50:58;;;;;;;2.83;1.50;;;;;;;;;;5086144;28;20203;-66
2022/07/26 03:53:25;;;;;;;2.28;1.35;;;;;;;;;;5085725;28;20201;-65
2022/07/26 03:58:39;;;;;;;4.55;1.73;;;;;;;;;;5092340;28;20295;-67
2022/07/26 04:01:07;;;;;;;4.43;1.42;;;;;;;;;;5095875;28;20261;-67
2022/07/26 04:03:34;;;;;;;1.92;1.50;;;;;;;;;;5084693;28;20825;-67
2022/07/26 04:06:01;;;;;;;2.97;1.65;;;;;;;;;;5102824;28;20204;-67
2022/07/26 04:08:29;;;;;;;1.50;1.40;;;;;;;;;;5089165;28;20354;-67
2022/07/26 04:10:57;;;;;;;1.52;1.42;;;;;;;;;;5092405;28;20204;-67
2022/07/26 04:13:24;;;;;;;1.73;1.40;;;;;;;;;;5110337;28;20226;-65
2022/07/26 04:15:52;;;;;;;2.13;1.65;;;;;;;;;;5112778;27;20205;-67
2022/07/26 04:18:19;;;;;;;1.75;1.65;;;;;;;;;;5078022;28;20203;-66
2022/07/26 04:20:50;;;;;;;2.10;1.50;;;;;;;;;;5081783;28;20226;-67
2022/07/26 04:23:17;;;;;;;4.93;4.53;;;;;;;;;;5085462;28;20273;-67
2022/07/26 04:25:45;;;;;;;2.00;1.80;;;;;;;;;;5078719;28;20204;-66
2022/07/26 04:28:12;;;;;;;1.58;1.48;;;;;;;;;;5073554;28;20220;-67
2022/07/26 04:30:40;;;;;;;1.17;1.17;;;;;;;;;;5082119;28;20238;-65
2022/07/26 04:33:08;;;;;;;2.17;1.50;;;;;;;;;;5071633;28;20209;-65
2022/07/26 04:35:35;;;;;;;1.65;1.52;;;;;;;;;;5079792;28;20204;-65
2022/07/26 04:38:03;;;;;;;1.30;1.20;;;;;;;;;;5103788;27;20280;-65
2022/07/26 04:40:33;;;;;;;2.03;1.40;;;;;;;;;;5076449;28;20220;-64
2022/07/26 04:43:07;;;;;;;1.60;1.48;;;;;;;;;;5083980;27;20252;-66
2022/07/26 04:45:36;;;;;;;1.60;1.50;;;;;;;;;;5083602;28;20675;-66
2022/07/26 04:48:04;;;;;;;2.50;1.60;;;;;;;;;;5099563;27;20261;-67
2022/07/26 04:50:31;;;;;;;3.15;1.42;;;;;;;;;;5088043;28;20228;-67
2022/07/26 04:52:58;;;;;;;1.67;1.58;;;;;;;;;;5083073;28;20663;-67
2022/07/26 04:55:26;;;;;;;1.30;1.27;;;;;;;;;;5076697;28;20295;-65
2022/07/26 04:57:54;;;;;;;1.58;1.48;;;;;;;;;;5083204;28;20220;-66
2022/07/26 05:00:24;;;;;;;1.17;1.17;;;;;;;;;;5085524;28;20200;-67
2022/07/26 05:02:53;;;;;;;1.55;1.45;;;;;;;;;;5085456;27;20207;-66
2022/07/26 05:05:22;;;;;;;2.00;1.63;;;;;;;;;;5084919;28;20214;-67
2022/07/26 05:07:50;;;;;;;1.85;1.63;;;;;;;;;;5100427;27;20224;-67
2022/07/26 05:10:19;;;;;;;1.70;1.60;;;;;;;;;;5080262;28;20367;-65
2022/07/26 05:12:47;;;;;;;1.88;1.60;;;;;;;;;;5080644;28;20570;-66
2022/07/26 05:15:14;;;;;;;2.10;1.45;;;;;;;;;;5103364;28;20230;-67
2022/07/26 05:17:43;;;;;;;1.65;1.55;;;;;;;;;;5081328;28;20618;-67
2022/07/26 05:20:12;;;;;;;2.20;1.42;;;;;;;;;;5103669;28;20683;-66
2022/07/26 05:22:39;;;;;;;2.30;1.50;;;;;;;;;;5086524;28;20254;-66
2022/07/26 05:25:08;;;;;;;1.35;1.33;;;;;;;;;;5098267;27;20208;-65
2022/07/26 05:27:36;;;;;;;1.73;1.63;;;;;;;;;;5084712;28;20297;-66
2022/07/26 05:30:03;;;;;;;2.90;1.60;;;;;;;;;;5077825;28;20385;-66
2022/07/26 05:32:30;;;;;;;1.70;1.60;;;;;;;;;;5083923;28;20204;-67
2022/07/26 05:34:58;;;;;;;1.58;1.40;;;;;;;;;;5084571;28;20578;-67
2022/07/26 05:37:25;;;;;;;1.88;1.60;;;;;;;;;;5085097;28;20225;-65
2022/07/26 05:39:53;;;;;;;1.70;1.60;;;;;;;;;;5089158;27;20256;-66
2022/07/26 05:42:20;;;;;;;1.90;1.75;;;;;;;;;;5103765;27;20247;-66
2022/07/26 05:44:47;;;;;;;5.72;3.00;;;;;;;;;;5085076;28;20243;-67
2022/07/26 05:47:15;;;;;;;3.25;1.80;;;;;;;;;;5088247;28;20236;-67
2022/07/26 05:49:43;;;;;;;2.83;1.45;;;;;;;;;;5084665;28;20220;-67
2022/07/26 05:52:10;;;;;;;3.92;1.73;;;;;;;;;;5079384;28;20974;-67
2022/07/26 05:54:37;;;;;;;2.05;1.42;;;;;;;;;;5084873;28;20253;-66
2022/07/26 05:57:05;;;;;;;3.85;2.00;;;;;;;;;;5079987;27;20490;-67
2022/07/26 05:59:32;;;;;;;2.90;1.70;;;;;;;;;;5086283;27;20205;-66
2022/07/26 06:02:01;;;;;;;4.88;1.80;;;;;;;;;;5083422;28;20274;-67
2022/07/26 06:04:28;;;;;;;2.05;1.80;;;;;;;;;;5091001;28;20710;-67
2022/07/26 06:06:56;;;;;;;1.85;1.45;;;;;;;;;;5085104;28;20258;-67
2022/07/26 06:09:23;;;;;;;1.90;1.55;;;;;;;;;;5086757;28;20224;-66
2022/07/26 06:11:51;;;;;;;7.72;2.75;;;;;;;;;;5088701;27;20907;-67
2022/07/26 06:14:19;;;;;;;1.60;1.50;;;;;;;;;;5091945;28;20646;-67
2022/07/26 06:16:47;;;;;;;3.70;1.80;;;;;;;;;;5115630;27;20220;-68
2022/07/26 06:19:14;;;;;;;2.50;1.55;;;;;;;;;;5087111;28;20204;-67
2022/07/26 06:21:44;;;;;;;2.90;1.60;;;;;;;;;;5086876;27;20258;-66
2022/07/26 06:24:11;;;;;;;2.20;1.75;;;;;;;;;;5103018;27;20652;-66
2022/07/26 06:26:39;;;;;;;5.13;2.17;;;;;;;;;;5092937;28;20284;-66
2022/07/26 06:29:07;;;;;;;2.60;1.80;;;;;;;;;;5108103;27;20204;-67
2022/07/26 06:31:34;;;;;;;2.20;1.75;;;;;;;;;;5090933;28;20481;-66
2022/07/26 06:34:01;;;;;;;3.22;1.90;;;;;;;;;;5085848;27;20256;-66
2022/07/26 06:36:29;;;;;;;2.65;1.73;;;;;;;;;;5081042;28;20224;-67
2022/07/26 06:38:57;;;;;;;2.83;2.50;;;;;;;;;;5110473;27;20290;-67
2022/07/26 06:41:25;;;;;;;4.10;2.20;;;;;;;;;;5087423;28;20200;-66
2022/07/26 06:43:52;;;;;;;1.88;1.77;;;;;;;;;;5088033;28;20199;-67
2022/07/26 06:46:20;;;;;;;1.73;1.60;;;;;;;;;;5102037;28;20228;-67
2022/07/26 06:48:49;;;;;;;2.65;2.00;;;;;;;;;;5107720;27;20567;-65
2022/07/26 06:51:19;;;;;;;2.42;1.80;;;;;;;;;;5092065;28;20220;-66
2022/07/26 06:53:48;;;;;;;2.35;1.70;;;;;;;;;;5102175;28;20205;-68
2022/07/26 06:56:19;;;;;;;3.03;2.03;;;;;;;;;;5084338;27;20818;-66
2022/07/26 06:58:47;;;;;;;2.25;1.50;;;;;;;;;;5091451;27;20258;-66
2022/07/26 07:01:15;;;;;;;2.50;1.88;;;;;;;;;;5100664;27;20211;-67
2022/07/26 07:04:02;;;;;;;2.78;1.65;;;;;;;;;;5083236;28;20212;-64
2022/07/26 07:06:31;;;;;;;1.88;1.70;;;;;;;;;;5070909;28;20226;-63
2022/07/26 07:08:59;;;;;;;2.03;1.83;;;;;;;;;;5090621;27;20204;-67
2022/07/26 07:11:26;;;;;;;2.33;1.70;;;;;;;;;;5077607;28;20200;-64
2022/07/26 07:13:54;;;;;;;1.83;1.73;;;;;;;;;;5077906;28;20258;-64
2022/07/26 07:16:22;;;;;;;2.08;1.92;;;;;;;;;;5081412;28;20738;-63
2022/07/26 07:18:50;;;;;;;3.53;1.98;;;;;;;;;;5073359;28;20200;-67
2022/07/26 07:21:17;;;;;;;3.22;1.85;;;;;;;;;;5090531;27;20255;-66
2022/07/26 07:23:44;;;;;;;2.78;1.80;;;;;;;;;;5085778;28;20252;-64
2022/07/26 07:26:12;;;;;;;2.00;1.90;;;;;;;;;;5078107;28;20337;-66
2022/07/26 07:28:40;;;;;;;3.75;1.80;;;;;;;;;;5103755;28;20704;-66
2022/07/26 07:31:07;;;;;;;2.95;2.05;;;;;;;;;;5088802;28;20228;-65
2022/07/26 07:33:35;;;;;;;2.38;2.17;;;;;;;;;;5089218;28;20232;-67
2022/07/26 07:36:20;;;;;;;2.42;2.00;;;;;;;;;;5089453;28;20673;-67
2022/07/26 07:38:47;;;;;;;2.00;1.90;;;;;;;;;;5091900;28;20207;-65
2022/07/26 07:41:15;;;;;;;2.65;2.10;;;;;;;;;;5113207;28;20212;-65
2022/07/26 07:43:42;;;;;;;6.32;2.30;;;;;;;;;;5090760;28;20663;-64
2022/07/26 07:46:11;;;;;;;3.38;2.38;;;;;;;;;;5085677;28;20257;-67
2022/07/26 07:48:39;;;;;;;3.55;2.15;;;;;;;;;;5090219;28;20200;-68
2022/07/26 07:51:13;;;;;;;3.25;2.45;;;;;;;;;;5091685;28;20246;-66
2022/07/26 07:53:42;;;;;;;4.50;2.50;;;;;;;;;;5081921;28;20754;-67
2022/07/26 07:56:23;;;;;;;2.95;2.30;;;;;;;;;;5090802;28;20351;-67
2022/07/26 07:58:50;;;;;;;3.17;2.72;;;;;;;;;;5090137;28;20195;-66
2022/07/26 08:01:18;;;;;;;4.72;2.67;;;;;;;;;;5102489;28;20295;-66
2022/07/26 08:03:46;;;;;;;3.63;3.05;;;;;;;;;;5107753;28;20702;-65
2022/07/26 08:06:16;;;;;;;4.00;2.40;;;;;;;;;;5107425;28;20246;-66
2022/07/26 08:08:44;;;;;;;3.40;2.83;;;;;;;;;;5092215;28;20273;-67
2022/07/26 08:11:15;;;;;;;3.35;2.72;;;;;;;;;;5087160;28;20235;-67
2022/07/26 08:13:42;;;;;;;3.47;2.65;;;;;;;;;;5089074;27;20559;-67
2022/07/26 08:16:14;;;;;;;3.40;2.58;;;;;;;;;;5092590;28;21615;-67
2022/07/26 08:18:41;;;;;;;4.25;2.47;;;;;;;;;;5088215;27;20200;-67
2022/07/26 08:21:24;;;;;;;5.60;2.60;;;;;;;;;;5094470;27;20231;-67
2022/07/26 08:23:54;;;;;;;3.35;2.70;;;;;;;;;;5099157;27;20296;-66
2022/07/26 08:26:21;;;;;;;3.70;2.10;;;;;;;;;;5090447;28;20228;-67
2022/07/26 08:28:49;;;;;;;2.55;2.17;;;;;;;;;;5090578;28;20219;-64
2022/07/26 08:31:27;;;;;;;2.78;2.20;;;;;;;;;;5090168;28;20286;-66
2022/07/26 08:33:55;;;;;;;3.95;2.60;;;;;;;;;;5097474;27;20226;-65
2022/07/26 08:36:22;;;;;;;4.05;2.15;;;;;;;;;;5090666;28;20216;-67
2022/07/26 08:38:50;;;;;;;3.78;2.10;;;;;;;;;;5097434;28;20212;-65
2022/07/26 08:41:18;;;;;;;4.85;2.40;;;;;;;;;;5097638;27;20196;-68
2022/07/26 08:43:46;;;;;;;4.55;3.20;;;;;;;;;;5095780;28;20507;-69
2022/07/26 08:46:22;;;;;;;4.63;2.10;;;;;;;;;;5099558;27;20257;-67
2022/07/26 08:48:53;;;;;;;2.20;2.00;;;;;;;;;;5094029;27;20250;-68
2022/07/26 08:51:21;;;;;;;3.03;1.60;;;;;;;;;;5092889;27;20233;-67
2022/07/26 08:53:49;;;;;;;2.38;1.90;;;;;;;;;;5095060;28;20212;-67
2022/07/26 08:56:17;;;;;;;2.05;1.70;;;;;;;;;;5094802;27;20219;-67
2022/07/26 08:58:44;;;;;;;2.45;2.25;;;;;;;;;;5090683;27;20800;-66
2022/07/26 09:01:12;;;;;;;2.58;1.98;;;;;;;;;;5090897;27;20234;-68
2022/07/26 09:03:42;;;;;;;2.97;1.92;;;;;;;;;;5083708;27;20210;-67
2022/07/26 09:06:15;;;;;;;2.75;1.77;;;;;;;;;;5089325;28;20717;-68
2022/07/26 09:08:43;;;;;;;3.28;1.80;;;;;;;;;;5084036;27;20293;-68
2022/07/26 09:11:38;;;;;;;2.05;1.85;;;;;;;;;;5088664;27;20235;-64
2022/07/26 09:14:06;;;;;;;2.35;1.60;;;;;;;;;;5111727;27;20674;-67
2022/07/26 09:16:33;;;;;;;2.50;1.92;;;;;;;;;;5087121;28;20574;-67
2022/07/26 09:19:16;;;;;;;2.88;1.92;;;;;;;;;;5090191;28;20200;-67
2022/07/26 09:21:43;;;;;;;2.10;1.80;;;;;;;;;;5088947;27;20697;-64
2022/07/26 09:24:11;;;;;;;2.22;1.90;;;;;;;;;;5094993;27;20211;-66
2022/07/26 09:26:39;;;;;;;4.40;1.88;;;;;;;;;;5103869;27;20231;-66
2022/07/26 09:29:06;;;;;;;2.20;1.40;;;;;;;;;;5091949;27;20230;-65
2022/07/26 09:31:34;;;;;;;3.00;1.60;;;;;;;;;;5108669;27;20251;-64
2022/07/26 09:34:03;;;;;;;4.20;1.58;;;;;;;;;;5094782;28;20565;-67
2022/07/26 09:36:33;;;;;;;3.40;1.67;;;;;;;;;;5090859;27;20225;-67
2022/07/26 09:39:02;;;;;;;1.58;1.40;;;;;;;;;;5090290;28;20291;-66
2022/07/26 09:41:34;;;;;;;1.95;1.40;;;;;;;;;;5093336;28;20617;-66
2022/07/26 09:44:03;;;;;;;3.63;1.73;;;;;;;;;;5096845;28;20200;-67
2022/07/26 09:46:33;;;;;;;3.42;1.48;;;;;;;;;;5094221;27;20239;-67
2022/07/26 09:49:17;;;;;;;2.70;1.95;;;;;;;;;;5089835;28;20269;-67
2022/07/26 09:51:45;;;;;;;2.13;1.50;;;;;;;;;;5094837;27;20300;-67
2022/07/26 09:54:28;;;;;;;2.25;1.40;;;;;;;;;;5104012;27;20219;-66
2022/07/26 09:56:56;;;;;;;1.70;1.60;;;;;;;;;;5110143;27;20215;-67
2022/07/26 09:59:25;;;;;;;2.78;1.60;;;;;;;;;;5105065;27;20205;-67
2022/07/26 10:01:53;;;;;;;3.25;1.60;;;;;;;;;;5086917;28;20200;-67
2022/07/26 10:04:22;;;;;;;3.83;1.30;;;;;;;;;;5088824;27;20232;-67
2022/07/26 10:06:49;;;;;;;3.38;1.30;;;;;;;;;;5088555;28;20224;-68
2022/07/26 10:09:17;;;;;;;1.40;1.30;;;;;;;;;;5086755;27;20201;-67
2022/07/26 10:11:54;;;;;;;1.73;1.30;;;;;;;;;;5105099;27;20273;-67
2022/07/26 10:14:38;;;;;;;1.80;1.10;;;;;;;;;;5102411;27;20219;-68
2022/07/26 10:17:24;;;;;;;1.50;1.40;;;;;;;;;;5081768;28;20216;-66
2022/07/26 10:20:00;;;;;;;3.13;1.30;;;;;;;;;;5111637;27;20196;-68
2022/07/26 10:22:30;;;;;;;2.60;1.50;;;;;;;;;;5085190;28;20258;-68
2022/07/26 10:25:18;;;;;;;2.67;1.40;;;;;;;;;;5086985;28;20205;-67
2022/07/26 10:27:51;;;;;;;2.35;1.30;;;;;;;;;;5084190;28;20259;-67
2022/07/26 10:30:26;;;;;;;3.70;1.48;;;;;;;;;;5090488;28;20221;-69
2022/07/26 10:33:01;;;;;;;4.95;1.33;;;;;;;;;;5081393;28;20200;-67
2022/07/26 10:35:29;;;;;;;2.25;1.30;;;;;;;;;;5076784;28;20273;-67
2022/07/26 10:38:01;;;;;;;1.90;1.30;;;;;;;;;;5079972;28;20232;-67
2022/07/26 10:40:29;;;;;;;2.08;1.33;;;;;;;;;;5085395;27;20237;-64
2022/07/26 10:43:13;;;;;;;1.63;1.30;;;;;;;;;;5106289;27;20200;-67
2022/07/26 10:46:13;;;;;;;3.35;1.40;;;;;;;;;;5080264;28;20212;-67
2022/07/26 10:49:02;;;;;;;7.05;1.45;;;;;;;;;;5085387;27;20230;-65
2022/07/26 10:51:32;;;;;;;2.97;1.25;;;;;;;;;;5100246;27;20588;-67
2022/07/26 10:54:03;;;;;;;4.18;1.30;;;;;;;;;;5077162;28;20698;-66
2022/07/26 10:56:32;;;;;;;3.20;1.58;;;;;;;;;;5103368;27;20269;-66
2022/07/26 10:59:00;;;;;;;3.35;2.40;;;;;;;;;;5083426;28;20227;-65
2022/07/26 11:01:35;;;;;;;1.98;1.60;;;;;;;;;;5080454;27;20215;-65
2022/07/26 11:04:02;;;;;;;2.33;1.80;;;;;;;;;;5084058;28;20239;-65
2022/07/26 11:06:30;;;;;;;1.27;1.17;;;;;;;;;;5106957;27;20227;-65
2022/07/26 11:08:57;;;;;;;1.98;1.40;;;;;;;;;;5092497;28;20208;-66
2022/07/26 11:11:29;;;;;;;2.17;1.35;;;;;;;;;;5087427;28;20262;-66
2022/07/26 11:14:10;;;;;;;1.60;1.50;;;;;;;;;;5099473;28;20290;-65
2022/07/26 11:16:47;;;;;;;2.88;1.65;;;;;;;;;;5083997;27;20220;-66
2022/07/26 11:19:15;;;;;;;2.67;1.02;;;;;;;;;;5094216;27;20203;-66
2022/07/26 11:21:46;;;;;;;2.80;1.00;;;;;;;;;;5097844;28;20219;-66
2022/07/26 11:24:14;;;;;;;2.33;1.30;;;;;;;;;;5083756;28;20218;-66
2022/07/26 11:26:42;;;;;;;1.73;1.30;;;;;;;;;;5082109;28;21392;-66
2022/07/26 11:29:10;;;;;;;1.63;1.20;;;;;;;;;;5091817;28;20208;-66
2022/07/26 11:31:46;;;;;;;1.92;1.13;;;;;;;;;;5107686;28;20227;-66
2022/07/26 11:34:27;;;;;;;2.20;1.10;;;;;;;;;;5087289;28;20640;-66
2022/07/26 11:36:56;;;;;;;2.13;1.10;;;;;;;;;;5082555;28;20220;-66
2022/07/26 11:39:23;;;;;;;2.38;1.13;;;;;;;;;;5090133;28;20200;-66
2022/07/26 11:41:51;;;;;;;1.45;1.33;;;;;;;;;;5098551;28;20195;-66
2022/07/26 11:44:20;;;;;;;1.90;1.40;;;;;;;;;;5090271;28;20197;-66
2022/07/26 11:46:48;;;;;;;2.83;1.33;;;;;;;;;;5086155;28;20329;-66
2022/07/26 11:49:19;;;;;;;4.32;1.00;;;;;;;;;;5091368;28;20231;-64
2022/07/26 11:51:51;;;;;;;1.13;0.93;;;;;;;;;;5089926;28;20226;-66
2022/07/26 11:54:20;;;;;;;5.72;1.10;;;;;;;;;;5087954;28;20252;-66
2022/07/26 11:56:51;;;;;;;3.92;1.13;;;;;;;;;;5092017;27;20224;-65
2022/07/26 11:59:19;;;;;;;3.58;1.27;;;;;;;;;;5086872;27;20197;-66
2022/07/26 12:01:46;;;;;;;1.20;1.00;;;;;;;;;;5084163;28;20208;-66
2022/07/26 12:04:26;;;;;;;2.42;1.30;;;;;;;;;;5083451;27;20308;-66
2022/07/26 12:06:55;;;;;;;1.70;1.10;;;;;;;;;;5086034;28;20314;-66
2022/07/26 12:09:32;;;;;;;2.25;1.45;;;;;;;;;;5116085;27;20257;-66
2022/07/26 12:12:00;;;;;;;2.20;1.40;;;;;;;;;;5102617;27;20282;-66
2022/07/26 12:14:28;;;;;;;5.25;1.15;;;;;;;;;;5091873;28;20275;-66
2022/07/26 12:16:56;;;;;;;4.18;1.00;;;;;;;;;;5083959;28;20220;-66
2022/07/26 12:19:25;;;;;;;2.15;1.30;;;;;;;;;;5088618;27;20196;-66
2022/07/26 12:22:07;;;;;;;1.65;1.30;;;;;;;;;;5103248;27;20220;-66
2022/07/26 12:25:01;;;;;;;1.75;1.27;;;;;;;;;;5089842;28;20207;-65
2022/07/26 12:27:29;;;;;;;1.70;0.98;;;;;;;;;;5094747;27;20227;-65
2022/07/26 12:30:03;;;;;;;3.45;1.23;;;;;;;;;;5096653;28;20639;-66
2022/07/26 12:32:35;;;;;;;4.57;1.00;;;;;;;;;;5098442;27;20231;-66
2022/07/26 12:35:06;;;;;;;1.83;1.45;;;;;;;;;;5080902;28;20689;-66
2022/07/26 12:37:37;;;;;;;1.67;1.50;;;;;;;;;;5085920;28;20252;-66
2022/07/26 12:40:11;;;;;;;1.80;1.02;;;;;;;;;;5086164;28;20572;-66
2022/07/26 12:42:40;;;;;;;4.15;1.67;;;;;;;;;;5103348;27;20622;-66
2022/07/26 12:45:11;;;;;;;1.83;1.40;;;;;;;;;;5088914;28;20212;-65
2022/07/26 12:47:40;;;;;;;1.25;0.93;;;;;;;;;;5102368;28;20228;-66
2022/07/26 12:50:09;;;;;;;1.70;1.20;;;;;;;;;;5098255;27;20256;-66
2022/07/26 12:52:37;;;;;;;1.42;1.33;;;;;;;;;;5099617;27;20798;-65
2022/07/26 12:55:05;;;;;;;1.10;1.00;;;;;;;;;;5095728;27;20199;-65
2022/07/26 12:57:34;;;;;;;2.25;1.10;;;;;;;;;;5091267;28;20220;-65
2022/07/26 13:00:04;;;;;;;2.08;1.15;;;;;;;;;;5090988;28;20811;-65
2022/07/26 13:02:31;;;;;;;3.03;1.17;;;;;;;;;;5089154;27;20234;-65
2022/07/26 13:05:00;;;;;;;1.10;1.00;;;;;;;;;;5091367;28;20204;-65
2022/07/26 13:07:28;;;;;;;3.22;1.38;;;;;;;;;;5106477;27;20223;-65
2022/07/26 13:09:55;;;;;;;1.95;1.00;;;;;;;;;;5127487;27;20594;-65
2022/07/26 13:12:43;;;;;;;2.53;1.10;;;;;;;;;;5094421;28;20231;-66
2022/07/26 13:15:10;;;;;;;2.47;1.02;;;;;;;;;;5093320;27;20218;-66
2022/07/26 13:17:37;;;;;;;1.85;1.10;;;;;;;;;;5090700;28;20227;-66
2022/07/26 13:20:05;;;;;;;1.13;0.90;;;;;;;;;;5084603;28;20197;-66
2022/07/26 13:22:33;;;;;;;0.98;0.90;;;;;;;;;;5101635;27;20212;-66
2022/07/26 13:25:00;;;;;;;2.40;0.90;;;;;;;;;;5100337;28;20442;-65
2022/07/26 13:27:35;;;;;;;1.27;1.17;;;;;;;;;;5076083;28;20223;-66
2022/07/26 13:30:07;;;;;;;1.30;1.20;;;;;;;;;;5089859;28;20215;-65
2022/07/26 13:32:35;;;;;;;2.30;0.77;;;;;;;;;;5109698;27;20227;-66
2022/07/26 13:35:02;;;;;;;1.13;0.82;;;;;;;;;;5089210;28;20217;-67
2022/07/26 13:37:29;;;;;;;1.85;1.40;;;;;;;;;;5087211;27;20239;-67
2022/07/26 13:39:58;;;;;;;2.60;1.10;;;;;;;;;;5083936;28;20207;-66
2022/07/26 13:42:25;;;;;;;3.55;1.00;;;;;;;;;;5084815;28;20224;-66
2022/07/26 13:44:53;;;;;;;2.75;1.05;;;;;;;;;;5090753;28;20667;-66
2022/07/26 13:47:20;;;;;;;3.20;1.17;;;;;;;;;;5088873;28;20223;-66
2022/07/26 13:49:47;;;;;;;1.77;0.90;;;;;;;;;;5095102;28;20216;-66
2022/07/26 13:52:15;;;;;;;3.45;1.20;;;;;;;;;;5093532;28;20228;-66
2022/07/26 13:54:43;;;;;;;1.92;1.08;;;;;;;;;;5088302;28;20204;-66
2022/07/26 13:57:11;;;;;;;2.08;0.90;;;;;;;;;;5098373;27;20263;-66
2022/07/26 13:59:39;;;;;;;1.83;1.23;;;;;;;;;;5090375;27;20201;-66
2022/07/26 14:02:06;;;;;;;2.65;1.00;;;;;;;;;;5113324;27;20691;-66
2022/07/26 14:04:34;;;;;;;1.10;1.00;;;;;;;;;;5089019;27;20204;-66
2022/07/26 14:07:02;;;;;;;1.05;0.93;;;;;;;;;;5106977;28;20881;-67
2022/07/26 14:09:29;;;;;;;1.73;1.02;;;;;;;;;;5093643;28;20208;-66
2022/07/26 14:11:56;;;;;;;2.15;1.00;;;;;;;;;;5112351;28;20219;-67
2022/07/26 14:14:24;;;;;;;0.90;0.90;;;;;;;;;;5086776;28;20691;-66
2022/07/26 14:16:51;;;;;;;2.33;1.20;;;;;;;;;;5090641;27;20771;-67
2022/07/26 14:19:20;;;;;;;1.40;1.30;;;;;;;;;;5094248;28;20201;-66
2022/07/26 14:21:49;;;;;;;1.75;1.35;;;;;;;;;;5093007;28;20712;-65
2022/07/26 14:24:26;;;;;;;1.55;0.90;;;;;;;;;;5091688;28;20204;-67
2022/07/26 14:26:53;;;;;;;1.00;0.90;;;;;;;;;;5092948;27;20220;-64
2022/07/26 14:29:25;;;;;;;2.00;0.85;;;;;;;;;;5083293;27;20204;-65
2022/07/26 14:31:53;;;;;;;2.35;1.17;;;;;;;;;;5087071;28;20285;-64
2022/07/26 14:34:20;;;;;;;0.95;0.90;;;;;;;;;;5094619;28;20200;-64
2022/07/26 14:36:48;;;;;;;1.58;1.00;;;;;;;;;;5093095;27;22097;-66
2022/07/26 14:39:15;;;;;;;1.20;1.10;;;;;;;;;;5090465;28;20241;-65
2022/07/26 14:41:43;;;;;;;1.10;1.00;;;;;;;;;;5085232;28;20196;-65
2022/07/26 14:44:10;;;;;;;0.98;0.90;;;;;;;;;;5091709;27;20196;-65
2022/07/26 14:46:38;;;;;;;2.22;1.02;;;;;;;;;;5081541;28;20233;-67
2022/07/26 14:49:05;;;;;;;1.83;1.30;;;;;;;;;;5089492;28;20200;-65
2022/07/26 14:51:33;;;;;;;1.40;0.90;;;;;;;;;;5085519;28;20234;-66
2022/07/26 14:54:00;;;;;;;2.10;1.00;;;;;;;;;;5085949;28;20199;-67
2022/07/26 14:56:27;;;;;;;1.98;0.90;;;;;;;;;;5080428;28;20489;-67
2022/07/26 14:58:55;;;;;;;1.05;0.90;;;;;;;;;;5081477;28;20258;-67